createdAt,value
2019-05-10T00:00:36.954Z,3.83
2019-05-10T00:03:23.452Z,3.90
2019-05-10T00:06:09.935Z,4.50
2019-05-10T00:08:47.079Z,4.23
2019-05-10T00:11:28.650Z,5.10
2019-05-10T00:14:15.417Z,4.70
2019-05-10T00:16:45.209Z,4.50
2019-05-10T00:19:13.605Z,4.50
2019-05-10T00:21:42.032Z,4.03
2019-05-10T00:24:10.428Z,4.37
2019-05-10T00:26:39.246Z,4.50
2019-05-10T00:29:07.904Z,4.50
2019-05-10T00:31:36.363Z,4.47
2019-05-10T00:34:04.921Z,4.50
2019-05-10T00:36:33.341Z,4.20
2019-05-10T00:39:01.774Z,3.80
2019-05-10T00:41:30.154Z,3.90
2019-05-10T00:43:58.572Z,3.60
2019-05-10T00:46:26.959Z,3.50
2019-05-10T00:48:55.660Z,2.93
2019-05-10T00:51:24.153Z,3.23
2019-05-10T00:53:52.545Z,3.67
2019-05-10T00:56:20.935Z,3.10
2019-05-10T00:58:49.350Z,3.27
2019-05-10T01:01:18.801Z,2.93
2019-05-10T01:03:47.217Z,3.60
2019-05-10T01:06:15.631Z,3.60
2019-05-10T01:08:44.342Z,3.77
2019-05-10T01:11:13.007Z,4.07
2019-05-10T01:13:41.444Z,4.33
2019-05-10T01:16:09.901Z,4.17
2019-05-10T01:18:38.293Z,3.90
2019-05-10T01:21:06.706Z,4.13
2019-05-10T01:23:35.091Z,3.67
2019-05-10T01:26:03.478Z,3.67
2019-05-10T01:28:31.900Z,4.13
2019-05-10T01:31:00.283Z,3.60
2019-05-10T01:33:28.675Z,3.40
2019-05-10T01:35:57.249Z,3.97
2019-05-10T01:38:25.641Z,4.23
2019-05-10T01:40:54.026Z,3.60
2019-05-10T01:43:22.440Z,4.90
2019-05-10T01:45:50.839Z,4.57
2019-05-10T01:48:19.226Z,5.20
2019-05-10T01:50:47.647Z,5.67
2019-05-10T01:53:16.038Z,5.17
2019-05-10T01:55:52.147Z,5.77
2019-05-10T01:58:14.852Z,5.20
2019-05-10T02:00:43.235Z,5.63
2019-05-10T02:03:11.624Z,5.13
2019-05-10T02:05:40.044Z,4.60
2019-05-10T02:08:08.434Z,4.30
2019-05-10T02:10:36.819Z,3.90
2019-05-10T02:13:05.227Z,4.50
2019-05-10T02:15:33.913Z,4.27
2019-05-10T02:18:02.302Z,5.00
2019-05-10T02:20:30.724Z,5.10
2019-05-10T02:22:59.143Z,4.70
2019-05-10T02:25:27.503Z,4.47
2019-05-10T02:27:55.919Z,4.83
2019-05-10T02:30:24.308Z,4.77
2019-05-10T02:32:52.693Z,4.33
2019-05-10T02:35:21.097Z,4.63
2019-05-10T02:37:49.487Z,4.60
2019-05-10T02:40:18.237Z,4.87
2019-05-10T02:42:46.679Z,4.73
2019-05-10T02:45:15.500Z,3.97
2019-05-10T02:47:43.886Z,3.47
2019-05-10T02:50:12.832Z,5.13
2019-05-10T02:52:41.217Z,3.60
2019-05-10T02:55:10.982Z,3.50
2019-05-10T02:57:39.774Z,4.00
2019-05-10T03:00:09.439Z,3.77
2019-05-10T03:02:38.568Z,3.90
2019-05-10T03:05:07.626Z,3.50
2019-05-10T03:07:38.223Z,4.00
2019-05-10T03:10:09.317Z,3.40
2019-05-10T03:12:40.524Z,3.93
2019-05-10T03:15:11.481Z,4.20
2019-05-10T03:17:41.481Z,4.10
2019-05-10T03:20:10.631Z,4.27
2019-05-10T03:22:43.628Z,4.40
2019-05-10T03:25:13.816Z,4.03
2019-05-10T03:27:42.528Z,3.80
2019-05-10T03:30:11.663Z,4.12
2019-05-10T03:32:40.050Z,4.20
2019-05-10T03:35:08.996Z,4.50
2019-05-10T03:37:37.382Z,4.00
2019-05-10T03:40:10.057Z,4.30
2019-05-10T03:42:38.460Z,4.13
2019-05-10T03:45:07.800Z,4.50
2019-05-10T03:47:36.209Z,4.53
2019-05-10T03:50:06.641Z,4.67
2019-05-10T03:52:35.023Z,4.20
2019-05-10T03:55:03.699Z,5.17
2019-05-10T03:57:32.081Z,5.03
2019-05-10T04:00:00.486Z,5.00
2019-05-10T04:02:28.950Z,5.00
2019-05-10T04:04:57.340Z,4.50
2019-05-10T04:07:25.738Z,4.53
2019-05-10T04:09:54.148Z,4.10
2019-05-10T04:12:22.532Z,4.00
2019-05-10T04:14:50.923Z,3.80
2019-05-10T04:17:19.329Z,3.97
2019-05-10T04:19:47.717Z,3.77
2019-05-10T04:22:16.144Z,3.50
2019-05-10T04:24:44.530Z,3.77
2019-05-10T04:27:30.632Z,3.70
2019-05-10T04:29:43.138Z,4.90
2019-05-10T04:32:11.522Z,4.70
2019-05-10T04:34:39.913Z,4.03
2019-05-10T04:37:08.328Z,4.43
2019-05-10T04:39:37.020Z,4.20
2019-05-10T04:42:05.426Z,4.80
2019-05-10T04:44:33.838Z,7.53
2019-05-10T04:47:02.230Z,4.97
2019-05-10T04:49:30.619Z,4.80
2019-05-10T04:51:59.155Z,5.00
2019-05-10T04:54:27.538Z,6.10
2019-05-10T04:56:59.975Z,6.23
2019-05-10T04:59:26.055Z,6.20
2019-05-10T05:01:54.696Z,5.47
2019-05-10T05:04:23.086Z,6.13
2019-05-10T05:06:51.490Z,8.97
2019-05-10T05:09:20.020Z,6.93
2019-05-10T05:11:48.418Z,6.50
2019-05-10T05:14:16.827Z,6.23
2019-05-10T05:16:45.228Z,10.27
2019-05-10T05:19:13.937Z,6.80
2019-05-10T05:21:42.350Z,7.10
2019-05-10T05:24:11.031Z,7.20
2019-05-10T05:26:40.836Z,7.03
2019-05-10T05:29:09.244Z,7.00
2019-05-10T05:31:37.639Z,7.13
2019-05-10T05:34:06.436Z,7.03
2019-05-10T05:36:34.823Z,6.60
2019-05-10T05:39:04.692Z,7.77
2019-05-10T05:41:47.609Z,6.87
2019-05-10T05:44:03.559Z,6.67
2019-05-10T05:46:31.956Z,5.95
2019-05-10T05:49:00.348Z,6.40
2019-05-10T05:51:28.812Z,5.67
2019-05-10T05:53:57.175Z,6.20
2019-05-10T05:56:25.746Z,5.85
2019-05-10T05:58:54.166Z,5.27
2019-05-10T06:01:26.196Z,5.03
2019-05-10T06:03:52.683Z,5.10
2019-05-10T06:06:23.205Z,4.70
2019-05-10T06:08:54.559Z,4.60
2019-05-10T06:11:21.334Z,4.63
2019-05-10T06:13:49.745Z,4.50
2019-05-10T06:16:18.142Z,4.13
2019-05-10T06:18:47.283Z,4.40
2019-05-10T06:21:17.756Z,4.42
2019-05-10T06:23:46.805Z,4.60
2019-05-10T06:26:26.243Z,4.40
2019-05-10T06:28:58.272Z,4.43
2019-05-10T06:31:15.472Z,4.40
2019-05-10T06:33:44.992Z,3.90
2019-05-10T06:36:14.021Z,4.00
2019-05-10T06:38:42.487Z,4.03
2019-05-10T06:41:16.716Z,4.07
2019-05-10T06:43:45.696Z,3.33
2019-05-10T06:46:11.147Z,3.57
2019-05-10T06:48:39.536Z,4.33
2019-05-10T06:51:09.707Z,3.93
2019-05-10T06:53:41.577Z,3.93
2019-05-10T06:56:08.539Z,4.27
2019-05-10T06:58:38.501Z,3.43
2019-05-10T07:01:06.929Z,3.70
2019-05-10T07:03:36.121Z,3.70
2019-05-10T07:06:04.533Z,3.50
2019-05-10T07:08:43.599Z,3.80
2019-05-10T07:11:03.045Z,3.37
2019-05-10T07:13:31.621Z,3.70
2019-05-10T07:16:00.015Z,3.70
2019-05-10T07:18:28.405Z,3.53
2019-05-10T07:21:00.943Z,3.70
2019-05-10T07:23:29.957Z,3.57
2019-05-10T07:25:57.072Z,3.00
2019-05-10T07:28:25.504Z,3.20
2019-05-10T07:30:54.128Z,3.20
2019-05-10T07:33:22.522Z,3.37
2019-05-10T07:35:51.006Z,3.00
2019-05-10T07:38:27.853Z,3.20
2019-05-10T07:40:49.456Z,3.80
2019-05-10T07:43:25.796Z,3.50
2019-05-10T07:45:48.139Z,3.90
2019-05-10T07:48:16.882Z,3.70
2019-05-10T07:50:49.177Z,3.87
2019-05-10T07:53:16.193Z,3.47
2019-05-10T07:55:45.898Z,3.70
2019-05-10T07:58:14.312Z,3.40
2019-05-10T08:00:44.269Z,3.73
2019-05-10T08:03:16.761Z,3.03
2019-05-10T08:05:46.410Z,2.97
2019-05-10T08:08:13.421Z,2.93
2019-05-10T08:10:42.042Z,2.90
2019-05-10T08:13:10.457Z,3.23
2019-05-10T08:15:38.846Z,2.67
2019-05-10T08:18:09.649Z,3.13
2019-05-10T08:20:49.198Z,3.00
2019-05-10T08:23:07.505Z,2.83
2019-05-10T08:25:40.980Z,2.60
2019-05-10T08:28:06.060Z,3.27
2019-05-10T08:30:42.582Z,2.97
2019-05-10T08:33:09.971Z,3.20
2019-05-10T08:35:41.162Z,3.23
2019-05-10T08:38:08.834Z,3.40
2019-05-10T08:40:38.166Z,3.17
2019-05-10T08:43:09.729Z,2.70
2019-05-10T08:45:38.795Z,2.90
2019-05-10T08:48:07.326Z,3.00
2019-05-10T08:50:49.670Z,3.87
2019-05-10T08:53:11.172Z,3.13
2019-05-10T08:55:35.974Z,3.17
2019-05-10T08:58:04.469Z,2.93
2019-05-10T09:00:45.178Z,2.47
2019-05-10T09:03:09.575Z,2.23
2019-05-10T09:05:34.056Z,3.07
2019-05-10T09:08:05.671Z,3.13
2019-05-10T09:10:33.035Z,2.93
2019-05-10T09:13:03.297Z,2.90
2019-05-10T09:15:33.131Z,2.83
2019-05-10T09:18:04.454Z,2.30
2019-05-10T09:20:32.076Z,2.30
2019-05-10T09:23:02.380Z,2.53
2019-05-10T09:25:31.617Z,2.13
2019-05-10T09:28:10.621Z,2.50
2019-05-10T09:30:35.445Z,2.37
2019-05-10T09:33:08.591Z,2.10
2019-05-10T09:35:38.916Z,2.00
2019-05-10T09:38:04.796Z,2.60
2019-05-10T09:40:33.259Z,2.60
2019-05-10T09:43:07.366Z,2.07
2019-05-10T09:45:32.401Z,1.70
2019-05-10T09:48:02.484Z,2.10
2019-05-10T09:50:41.445Z,1.70
2019-05-10T09:53:01.173Z,1.97
2019-05-10T09:55:29.562Z,1.80
2019-05-10T09:57:58.420Z,2.00
2019-05-10T10:00:34.265Z,2.37
2019-05-10T10:03:03.226Z,2.07
2019-05-10T10:05:31.620Z,1.90
2019-05-10T10:08:03.681Z,2.10
2019-05-10T10:10:32.535Z,1.93
2019-05-10T10:13:08.451Z,1.43
2019-05-10T10:15:34.231Z,1.80
2019-05-10T10:18:00.782Z,2.20
2019-05-10T10:20:30.013Z,1.53
2019-05-10T10:22:58.846Z,1.63
2019-05-10T10:25:29.958Z,1.60
2019-05-10T10:27:57.514Z,1.70
2019-05-10T10:30:27.252Z,1.60
2019-05-10T10:32:58.086Z,1.40
2019-05-10T10:35:29.423Z,1.50
2019-05-10T10:37:57.373Z,1.70
2019-05-10T10:40:27.919Z,1.50
2019-05-10T10:42:57.740Z,1.87
2019-05-10T10:45:27.708Z,1.50
2019-05-10T10:47:57.324Z,1.30
2019-05-10T10:50:27.508Z,1.50
2019-05-10T10:52:57.499Z,1.63
2019-05-10T10:55:32.444Z,1.40
2019-05-10T10:57:57.699Z,1.33
2019-05-10T11:00:34.400Z,1.70
2019-05-10T11:03:04.908Z,2.17
2019-05-10T11:05:33.360Z,1.70
2019-05-10T11:08:01.784Z,1.40
2019-05-10T11:10:31.616Z,1.77
2019-05-10T11:13:02.364Z,1.47
2019-05-10T11:15:35.878Z,1.97
2019-05-10T11:18:00.694Z,1.50
2019-05-10T11:20:31.480Z,1.60
2019-05-10T11:22:59.219Z,1.47
2019-05-10T11:25:27.609Z,1.50
2019-05-10T11:27:58.756Z,1.50
2019-05-10T11:30:26.142Z,1.50
2019-05-10T11:32:54.527Z,1.57
2019-05-10T11:35:28.477Z,1.67
2019-05-10T11:37:53.330Z,1.30
2019-05-10T11:40:30.288Z,1.50
2019-05-10T11:42:51.912Z,1.83
2019-05-10T11:45:26.117Z,2.10
2019-05-10T11:47:54.418Z,1.70
2019-05-10T11:50:31.552Z,1.30
2019-05-10T11:52:51.880Z,1.50
2019-05-10T11:55:21.607Z,1.73
2019-05-10T11:58:01.533Z,1.30
2019-05-10T12:00:29.249Z,2.00
2019-05-10T12:03:11.307Z,1.27
2019-05-10T12:05:26.331Z,1.50
2019-05-10T12:07:54.147Z,1.53
2019-05-10T12:10:25.570Z,1.57
2019-05-10T12:15:25.358Z,1.60
2019-05-10T12:17:58.628Z,1.67
2019-05-10T12:20:29.468Z,1.33
2019-05-10T12:22:52.296Z,1.20
2019-05-10T12:26:31.162Z,1.40
2019-05-10T12:26:50.411Z,1.10
2019-05-10T12:27:52.415Z,1.47
2019-05-10T12:30:21.754Z,1.63
2019-05-10T12:32:56.001Z,1.57
2019-05-10T12:35:21.415Z,1.50
2019-05-10T12:37:54.014Z,1.50
2019-05-10T12:40:23.784Z,1.50
2019-05-10T12:42:50.619Z,1.40
2019-05-10T12:45:22.857Z,1.20
2019-05-10T12:47:51.850Z,1.20
2019-05-10T12:50:22.313Z,1.27
2019-05-10T12:53:03.134Z,1.20
2019-05-10T12:55:20.996Z,1.33
2019-05-10T12:57:49.386Z,1.60
2019-05-10T13:00:17.946Z,1.43
2019-05-10T13:02:51.443Z,1.20
2019-05-10T13:05:16.517Z,1.30
2019-05-10T13:07:44.959Z,1.30
2019-05-10T13:10:13.968Z,1.17
2019-05-10T13:12:46.868Z,1.40
2019-05-10T13:15:14.902Z,1.40
2019-05-10T13:17:50.236Z,1.00
2019-05-10T13:20:13.946Z,1.20
2019-05-10T13:22:42.356Z,1.50
2019-05-10T13:25:11.116Z,1.40
2019-05-10T13:27:39.545Z,1.20
2019-05-10T13:30:10.636Z,1.37
2019-05-10T13:32:39.033Z,1.20
2019-05-10T13:35:08.265Z,1.23
2019-05-10T13:37:36.683Z,1.00
2019-05-10T13:40:08.082Z,0.90
2019-05-10T13:42:43.387Z,1.10
2019-05-10T13:45:07.395Z,1.20
2019-05-10T13:47:35.788Z,0.90
2019-05-10T13:50:06.359Z,1.10
2019-05-10T13:52:40.701Z,1.00
2019-05-10T13:55:06.336Z,0.90
2019-05-10T13:57:34.725Z,0.90
2019-05-10T14:00:05.050Z,1.00
2019-05-10T14:02:34.877Z,0.90
2019-05-10T14:05:04.158Z,1.30
2019-05-10T14:07:33.043Z,0.90
2019-05-10T14:10:01.467Z,1.20
2019-05-10T14:12:29.829Z,1.10
2019-05-10T14:15:02.521Z,1.00
2019-05-10T14:17:28.441Z,1.00
2019-05-10T14:19:57.164Z,1.00
2019-05-10T14:22:28.365Z,0.93
2019-05-10T14:24:59.161Z,0.83
2019-05-10T14:27:30.048Z,0.83
2019-05-10T14:29:56.375Z,0.90
2019-05-10T14:32:24.776Z,0.90
2019-05-10T14:34:53.169Z,1.07
2019-05-10T14:37:21.745Z,0.90
2019-05-10T14:39:50.305Z,0.80
2019-05-10T14:42:23.986Z,0.90
2019-05-10T14:44:49.406Z,1.03
2019-05-10T14:47:17.792Z,1.00
2019-05-10T14:49:47.210Z,1.27
2019-05-10T14:52:16.375Z,0.90
2019-05-10T14:54:49.770Z,1.00
2019-05-10T14:57:14.866Z,0.80
2019-05-10T14:59:43.272Z,1.20
2019-05-10T15:02:16.796Z,1.30
2019-05-10T15:04:44.996Z,1.10
2019-05-10T15:07:14.458Z,1.00
2019-05-10T15:09:42.109Z,0.90
2019-05-10T15:12:16.311Z,0.73
2019-05-10T15:14:40.650Z,0.70
2019-05-10T15:17:09.306Z,0.70
2019-05-10T15:19:37.701Z,1.00
2019-05-10T15:22:06.147Z,1.20
2019-05-10T15:24:34.533Z,1.03
2019-05-10T15:27:02.930Z,1.00
2019-05-10T15:29:31.360Z,0.70
2019-05-10T15:31:59.837Z,0.60
2019-05-10T15:34:28.232Z,0.83
2019-05-10T15:36:56.645Z,0.80
2019-05-10T15:39:29.015Z,1.20
2019-05-10T15:41:59.184Z,0.83
2019-05-10T15:44:31.455Z,0.80
2019-05-10T15:46:55.415Z,1.17
2019-05-10T15:49:24.617Z,0.80
2019-05-10T15:51:55.314Z,0.83
2019-05-10T15:54:23.226Z,0.80
2019-05-10T15:56:55.232Z,0.73
2019-05-10T15:59:21.849Z,1.03
2019-05-10T16:01:50.219Z,0.80
2019-05-10T16:04:18.609Z,0.80
2019-05-10T16:06:47.032Z,0.90
2019-05-10T16:09:18.906Z,1.10
2019-05-10T16:11:45.809Z,0.90
2019-05-10T16:14:14.226Z,0.80
2019-05-10T16:16:42.626Z,1.10
2019-05-10T16:19:12.952Z,0.87
2019-05-10T16:21:41.232Z,0.97
2019-05-10T16:24:09.622Z,0.73
2019-05-10T16:26:38.012Z,0.80
2019-05-10T16:29:06.444Z,1.10
2019-05-10T16:31:34.836Z,0.90
2019-05-10T16:34:03.232Z,0.80
2019-05-10T16:36:31.743Z,0.90
2019-05-10T16:39:01.805Z,0.80
2019-05-10T16:41:30.742Z,0.90
2019-05-10T16:44:00.182Z,0.83
2019-05-10T16:46:28.735Z,1.10
2019-05-10T16:48:57.132Z,1.10
2019-05-10T16:51:25.538Z,1.00
2019-05-10T16:53:53.930Z,1.10
2019-05-10T16:56:22.319Z,1.63
2019-05-10T16:58:53.195Z,1.13
2019-05-10T17:01:25.132Z,1.00
2019-05-10T17:03:59.146Z,1.00
2019-05-10T17:06:21.138Z,1.50
2019-05-10T17:08:49.533Z,0.90
2019-05-10T17:11:17.945Z,1.20
2019-05-10T17:13:46.346Z,1.03
2019-05-10T17:16:17.200Z,1.10
2019-05-10T17:18:50.059Z,1.60
2019-05-10T17:21:14.996Z,1.37
2019-05-10T17:23:46.955Z,1.20
2019-05-10T17:26:13.516Z,0.90
2019-05-10T17:28:41.934Z,1.00
2019-05-10T17:31:10.331Z,0.90
2019-05-10T17:33:42.655Z,1.07
2019-05-10T17:36:09.127Z,0.80
2019-05-10T17:38:37.702Z,0.90
2019-05-10T17:41:06.090Z,1.00
2019-05-10T17:43:34.510Z,1.20
2019-05-10T17:46:02.908Z,1.10
2019-05-10T17:48:31.302Z,1.10
2019-05-10T17:50:59.714Z,0.90
2019-05-10T17:53:28.111Z,1.07
2019-05-10T17:56:02.196Z,1.00
2019-05-10T17:58:27.929Z,0.90
2019-05-10T18:00:56.749Z,1.40
2019-05-10T18:03:25.139Z,0.97
2019-05-10T18:05:53.741Z,1.20
2019-05-10T18:08:22.141Z,0.98
2019-05-10T18:10:50.551Z,1.20
2019-05-10T18:13:18.946Z,0.93
2019-05-10T18:15:47.346Z,0.87
2019-05-10T18:18:16.719Z,0.93
2019-05-10T18:20:45.141Z,0.97
2019-05-10T18:23:20.174Z,1.30
2019-05-10T18:25:43.648Z,1.57
2019-05-10T18:28:12.070Z,1.27
2019-05-10T18:30:40.473Z,1.17
2019-05-10T18:33:12.171Z,0.93
2019-05-10T18:35:40.179Z,1.00
2019-05-10T18:38:08.516Z,0.93
2019-05-10T18:40:36.908Z,8.50
2019-05-10T18:43:05.883Z,2.83
2019-05-10T18:45:34.359Z,1.20
2019-05-10T18:48:02.773Z,1.20
2019-05-10T18:50:31.263Z,1.13
2019-05-10T18:52:59.659Z,1.30
2019-05-10T18:55:28.056Z,1.50
2019-05-10T18:57:56.738Z,1.40
2019-05-10T19:00:25.500Z,1.53
2019-05-10T19:02:55.618Z,1.47
2019-05-10T19:05:31.675Z,1.23
2019-05-10T19:08:03.284Z,1.27
2019-05-10T19:10:24.329Z,1.80
2019-05-10T19:13:00.297Z,2.60
2019-05-10T19:15:23.193Z,1.80
2019-05-10T19:17:51.576Z,1.40
2019-05-10T19:20:20.070Z,1.37
2019-05-10T19:22:48.462Z,1.27
2019-05-10T19:25:16.859Z,1.33
2019-05-10T19:27:50.612Z,1.20
2019-05-10T19:30:20.198Z,1.20
2019-05-10T19:32:51.276Z,1.20
2019-05-10T19:35:16.417Z,1.60
2019-05-10T19:37:44.812Z,4.10
2019-05-10T19:40:13.373Z,4.43
2019-05-10T19:42:43.123Z,2.70
2019-05-10T19:45:18.685Z,2.77
2019-05-10T19:47:42.658Z,2.30
2019-05-10T19:50:11.412Z,3.03
2019-05-10T19:52:39.808Z,2.83
2019-05-10T19:55:13.172Z,1.87
2019-05-10T19:57:38.418Z,1.60
2019-05-10T20:00:11.280Z,1.70
2019-05-10T20:02:39.687Z,1.50
2019-05-10T20:05:08.367Z,3.90
2019-05-10T20:07:45.399Z,3.13
2019-05-10T20:10:08.176Z,1.90
2019-05-10T20:12:36.831Z,1.47
2019-05-10T20:15:09.049Z,1.60
2019-05-10T20:17:37.639Z,1.60
2019-05-10T20:20:07.785Z,1.70
2019-05-10T20:22:36.570Z,1.63
2019-05-10T20:25:06.695Z,2.03
2019-05-10T20:27:35.110Z,1.60
2019-05-10T20:30:04.450Z,22.80
2019-05-10T20:32:32.863Z,5.03
2019-05-10T20:35:01.562Z,2.33
2019-05-10T20:37:29.938Z,1.63
2019-05-10T20:39:58.348Z,1.70
2019-05-10T20:42:26.786Z,1.70
2019-05-10T20:45:06.751Z,1.50
2019-05-10T20:47:25.293Z,1.97
2019-05-10T20:49:53.732Z,1.70
2019-05-10T20:52:22.150Z,1.90
2019-05-10T20:54:50.536Z,1.70
2019-05-10T20:57:18.950Z,1.83
2019-05-10T20:59:47.343Z,2.00
2019-05-10T21:02:15.736Z,1.63
2019-05-10T21:04:44.188Z,2.50
2019-05-10T21:10:08.538Z,2.00
2019-05-10T21:12:36.925Z,1.90
2019-05-10T21:15:08.922Z,1.80
2019-05-10T21:17:37.326Z,1.97
2019-05-10T21:20:07.249Z,1.83
2019-05-10T21:22:35.637Z,2.00
2019-05-10T21:25:06.262Z,2.10
2019-05-10T21:27:34.651Z,3.03
2019-05-10T21:30:04.346Z,2.40
2019-05-10T21:32:32.859Z,2.10
2019-05-10T21:35:01.248Z,1.90
2019-05-10T21:37:29.639Z,2.50
2019-05-10T21:39:58.053Z,2.17
2019-05-10T21:42:26.443Z,2.00
2019-05-10T21:44:54.836Z,2.17
2019-05-10T21:47:23.250Z,2.20
2019-05-10T21:49:52.037Z,2.22
2019-05-10T21:52:20.436Z,2.50
2019-05-10T21:54:48.865Z,3.27
2019-05-10T21:57:17.254Z,3.70
2019-05-10T21:59:45.650Z,3.03
2019-05-10T22:02:14.132Z,2.53
2019-05-10T22:04:42.867Z,2.17
2019-05-10T22:07:11.257Z,2.37
2019-05-10T22:09:39.679Z,2.40
2019-05-10T22:12:08.404Z,2.73
2019-05-10T22:14:36.793Z,3.20
2019-05-10T22:17:05.776Z,3.90
2019-05-10T22:19:34.161Z,3.07
2019-05-10T22:22:02.587Z,3.17
2019-05-10T22:24:31.054Z,3.00
2019-05-10T22:26:59.700Z,2.50
2019-05-10T22:29:28.396Z,2.77
2019-05-10T22:31:56.813Z,2.97
2019-05-10T22:34:25.268Z,2.77
2019-05-10T22:36:53.674Z,2.67
2019-05-10T22:39:22.345Z,2.80
2019-05-10T22:41:52.994Z,2.50
2019-05-10T22:44:20.846Z,3.43
2019-05-10T22:46:49.261Z,3.58
2019-05-10T22:49:17.653Z,3.00
2019-05-10T22:51:46.048Z,2.70
2019-05-10T22:54:14.473Z,3.13
2019-05-10T22:56:42.863Z,2.60
2019-05-10T22:59:14.096Z,2.57
2019-05-10T23:01:42.667Z,2.30
2019-05-10T23:04:11.069Z,2.27
2019-05-10T23:06:39.453Z,2.20
2019-05-10T23:09:23.448Z,2.00
2019-05-10T23:11:38.836Z,2.50
2019-05-10T23:14:07.294Z,2.90
2019-05-10T23:16:35.701Z,2.73
2019-05-10T23:19:04.087Z,2.60
2019-05-10T23:21:32.482Z,2.70
2019-05-10T23:24:02.535Z,3.30
2019-05-10T23:26:30.920Z,2.93
2019-05-10T23:28:59.309Z,3.27
2019-05-10T23:31:27.732Z,2.97
2019-05-10T23:33:56.358Z,3.13
2019-05-10T23:36:24.753Z,2.30
2019-05-10T23:38:53.530Z,2.37
2019-05-10T23:41:21.918Z,2.40
2019-05-10T23:43:50.335Z,2.30
2019-05-10T23:46:18.793Z,2.37
2019-05-10T23:48:47.181Z,2.73
2019-05-10T23:51:15.566Z,2.70
2019-05-10T23:53:43.994Z,2.93
2019-05-10T23:56:12.380Z,3.13
2019-05-10T23:58:40.760Z,3.20
